Time;durP1;ratioP1;P1;durP2;ratioP2;P2;SDS_P1;SDS_P2;PMS_P1;PMS_P2;Temp;Humidity;BMP_temperature;BMP_pressure;BME280_temperature;BME280_humidity;BME280_pressure;Samples;Min_cycle;Max_cycle;Signal;HPM_P1;HPM_P2
2023/07/03 00:02:23;;;;;;;16.20;4.07;;;;;;;;;;5103233;28;20540;-69
2023/07/03 00:04:49;;;;;;;15.02;3.55;;;;;;;;;;5108084;28;20477;-69
2023/07/03 00:07:15;;;;;;;15.93;4.22;;;;;;;;;;5101745;28;20437;-69
2023/07/03 00:09:42;;;;;;;14.98;3.45;;;;;;;;;;5102578;28;20089;-68
2023/07/03 00:12:10;;;;;;;18.35;4.10;;;;;;;;;;5100179;28;20066;-68
2023/07/03 00:14:36;;;;;;;13.07;3.60;;;;;;;;;;5100280;28;20047;-68
2023/07/03 00:17:02;;;;;;;16.65;3.83;;;;;;;;;;5104021;28;20067;-69
2023/07/03 00:19:32;;;;;;;11.35;3.80;;;;;;;;;;5095971;27;20035;-68
2023/07/03 00:22:01;;;;;;;12.73;3.35;;;;;;;;;;5101505;27;20052;-68
2023/07/03 00:24:28;;;;;;;15.20;4.55;;;;;;;;;;5101418;27;20089;-68
2023/07/03 00:26:55;;;;;;;13.68;4.20;;;;;;;;;;5104252;28;20526;-68
2023/07/03 00:29:22;;;;;;;13.60;3.95;;;;;;;;;;5102970;28;20035;-68
2023/07/03 00:31:48;;;;;;;18.08;5.07;;;;;;;;;;5101634;28;20047;-68
2023/07/03 00:34:14;;;;;;;11.55;3.38;;;;;;;;;;5100351;28;20054;-68
2023/07/03 00:36:40;;;;;;;14.75;4.05;;;;;;;;;;5101313;28;20168;-69
2023/07/03 00:39:08;;;;;;;17.05;3.78;;;;;;;;;;5101085;28;20047;-68
2023/07/03 00:41:34;;;;;;;14.10;3.50;;;;;;;;;;5100490;28;20054;-69
2023/07/03 00:44:00;;;;;;;11.95;3.45;;;;;;;;;;5100513;28;20062;-68
2023/07/03 00:46:26;;;;;;;12.88;3.50;;;;;;;;;;5096961;28;20063;-69
2023/07/03 00:48:53;;;;;;;16.73;3.97;;;;;;;;;;5103485;28;20051;-68
2023/07/03 00:51:19;;;;;;;14.57;3.63;;;;;;;;;;5099483;28;21312;-69
2023/07/03 00:53:46;;;;;;;12.13;3.13;;;;;;;;;;5101555;28;20044;-68
2023/07/03 00:56:12;;;;;;;17.10;2.92;;;;;;;;;;5104624;28;20716;-69
2023/07/03 00:58:39;;;;;;;10.13;2.80;;;;;;;;;;5104397;28;20036;-69
2023/07/03 01:01:08;;;;;;;9.80;2.97;;;;;;;;;;5106757;28;20502;-69
2023/07/03 01:03:47;;;;;;;13.05;2.22;;;;;;;;;;5109564;28;20111;-68
2023/07/03 01:06:19;;;;;;;12.00;3.25;;;;;;;;;;5109373;28;20479;-68
2023/07/03 01:08:47;;;;;;;12.38;2.72;;;;;;;;;;5109861;28;20395;-68
2023/07/03 01:11:13;;;;;;;11.57;2.80;;;;;;;;;;5097310;28;20359;-69
2023/07/03 01:13:39;;;;;;;16.80;3.20;;;;;;;;;;5108303;28;20176;-68
2023/07/03 01:16:07;;;;;;;11.55;2.80;;;;;;;;;;5108181;28;20532;-68
2023/07/03 01:18:33;;;;;;;9.05;2.40;;;;;;;;;;5107743;28;20054;-68
2023/07/03 01:21:06;;;;;;;13.90;3.00;;;;;;;;;;5108637;28;20043;-68
2023/07/03 01:23:36;;;;;;;12.18;2.25;;;;;;;;;;5107119;28;20440;-68
2023/07/03 01:26:03;;;;;;;17.45;2.92;;;;;;;;;;5103959;28;20035;-68
2023/07/03 01:28:30;;;;;;;13.20;2.85;;;;;;;;;;5110107;28;20077;-68
2023/07/03 01:30:57;;;;;;;10.55;2.63;;;;;;;;;;5108665;28;20566;-68
2023/07/03 01:33:25;;;;;;;13.95;3.42;;;;;;;;;;5108110;28;20043;-68
2023/07/03 01:35:53;;;;;;;12.00;3.08;;;;;;;;;;5108239;28;20046;-68
2023/07/03 01:38:20;;;;;;;13.13;2.90;;;;;;;;;;5105887;28;20050;-68
2023/07/03 01:40:47;;;;;;;9.05;1.92;;;;;;;;;;5103458;28;20526;-68
2023/07/03 01:43:14;;;;;;;9.00;2.40;;;;;;;;;;5108337;28;20047;-69
2023/07/03 01:45:41;;;;;;;14.82;3.17;;;;;;;;;;5110544;28;20100;-68
2023/07/03 01:48:09;;;;;;;13.73;2.70;;;;;;;;;;5109409;27;20122;-68
2023/07/03 01:50:35;;;;;;;10.68;3.10;;;;;;;;;;5112965;27;20058;-68
2023/07/03 01:53:04;;;;;;;12.18;2.38;;;;;;;;;;5106871;27;20036;-68
2023/07/03 01:55:36;;;;;;;9.50;2.00;;;;;;;;;;5112618;28;20050;-68
2023/07/03 01:58:07;;;;;;;13.77;2.85;;;;;;;;;;5111090;27;20047;-68
2023/07/03 02:00:36;;;;;;;10.00;2.67;;;;;;;;;;5111678;27;20123;-68
2023/07/03 02:03:05;;;;;;;13.63;2.72;;;;;;;;;;5110753;27;20058;-68
2023/07/03 02:05:34;;;;;;;13.52;2.78;;;;;;;;;;5109200;27;20047;-68
2023/07/03 02:08:01;;;;;;;13.88;3.00;;;;;;;;;;5110072;27;20491;-68
2023/07/03 02:10:27;;;;;;;11.77;2.67;;;;;;;;;;5110395;27;20491;-68
2023/07/03 02:12:54;;;;;;;13.90;2.85;;;;;;;;;;5105471;27;20078;-69
2023/07/03 02:15:20;;;;;;;14.90;2.13;;;;;;;;;;5138073;27;20051;-68
2023/07/03 02:17:46;;;;;;;12.50;2.90;;;;;;;;;;5103455;28;20450;-68
2023/07/03 02:20:14;;;;;;;12.60;2.53;;;;;;;;;;5107515;27;20047;-68
2023/07/03 02:22:41;;;;;;;8.30;2.30;;;;;;;;;;5109988;28;20047;-68
2023/07/03 02:25:08;;;;;;;11.07;2.50;;;;;;;;;;5110344;28;20145;-68
2023/07/03 02:27:34;;;;;;;20.00;4.38;;;;;;;;;;5097257;27;20689;-68
2023/07/03 02:30:00;;;;;;;12.52;2.90;;;;;;;;;;5095403;28;20095;-68
2023/07/03 02:32:40;;;;;;;11.88;2.50;;;;;;;;;;5105334;28;20055;-68
2023/07/03 02:35:07;;;;;;;13.07;3.08;;;;;;;;;;5103377;28;20043;-68
2023/07/03 02:37:33;;;;;;;16.90;3.13;;;;;;;;;;5104510;27;20505;-68
2023/07/03 02:39:59;;;;;;;10.32;2.22;;;;;;;;;;5104380;28;20099;-68
2023/07/03 02:42:25;;;;;;;10.43;2.80;;;;;;;;;;5106739;28;20104;-68
2023/07/03 02:44:52;;;;;;;18.08;3.03;;;;;;;;;;5112333;27;20411;-68
2023/07/03 02:47:18;;;;;;;13.82;2.75;;;;;;;;;;5109123;28;20379;-68
2023/07/03 02:49:44;;;;;;;13.70;2.80;;;;;;;;;;5104996;28;20105;-68
2023/07/03 02:52:10;;;;;;;9.43;3.08;;;;;;;;;;5093065;28;20039;-68
2023/07/03 02:54:36;;;;;;;13.50;2.03;;;;;;;;;;5103657;27;20077;-68
2023/07/03 02:57:03;;;;;;;10.20;2.95;;;;;;;;;;5101555;28;20044;-69
2023/07/03 02:59:29;;;;;;;10.13;2.20;;;;;;;;;;5103713;27;20130;-68
2023/07/03 03:01:55;;;;;;;14.88;2.90;;;;;;;;;;5102971;27;20048;-68
2023/07/03 03:04:21;;;;;;;18.60;3.92;;;;;;;;;;5102696;27;20135;-69
2023/07/03 03:06:48;;;;;;;13.23;2.47;;;;;;;;;;5105473;27;20036;-68
2023/07/03 03:09:14;;;;;;;10.35;2.33;;;;;;;;;;5104466;28;20044;-68
2023/07/03 03:11:41;;;;;;;13.98;2.60;;;;;;;;;;5100391;27;20052;-68
2023/07/03 03:14:07;;;;;;;15.63;2.50;;;;;;;;;;5094859;28;20067;-68
2023/07/03 03:16:33;;;;;;;17.63;2.83;;;;;;;;;;5103313;28;20090;-68
2023/07/03 03:19:01;;;;;;;13.65;2.83;;;;;;;;;;5101252;28;20444;-68
2023/07/03 03:21:27;;;;;;;14.88;2.58;;;;;;;;;;5092579;27;20035;-68
2023/07/03 03:23:53;;;;;;;17.70;2.25;;;;;;;;;;5107197;28;20047;-68
2023/07/03 03:26:19;;;;;;;16.13;4.53;;;;;;;;;;5109537;28;20455;-68
2023/07/03 03:28:46;;;;;;;15.68;2.85;;;;;;;;;;5111475;28;20031;-68
2023/07/03 03:31:12;;;;;;;16.58;3.33;;;;;;;;;;5125419;27;20055;-68
2023/07/03 03:33:38;;;;;;;10.27;3.00;;;;;;;;;;5111229;28;20050;-68
2023/07/03 03:36:04;;;;;;;14.30;3.13;;;;;;;;;;5104548;27;20084;-68
2023/07/03 03:38:30;;;;;;;14.15;2.97;;;;;;;;;;5106541;27;20075;-68
2023/07/03 03:40:57;;;;;;;11.48;2.70;;;;;;;;;;5103900;28;20104;-68
2023/07/03 03:43:24;;;;;;;16.08;2.70;;;;;;;;;;5102353;28;20048;-68
2023/07/03 03:45:56;;;;;;;11.80;2.45;;;;;;;;;;5110841;28;20056;-68
2023/07/03 03:48:23;;;;;;;12.93;2.40;;;;;;;;;;5109740;28;20044;-68
2023/07/03 03:50:50;;;;;;;10.82;2.10;;;;;;;;;;5109318;27;20506;-68
2023/07/03 03:53:16;;;;;;;11.40;2.70;;;;;;;;;;5110710;27;20074;-68
2023/07/03 03:55:43;;;;;;;11.52;2.15;;;;;;;;;;5114367;27;20148;-68
2023/07/03 03:58:10;;;;;;;14.13;2.83;;;;;;;;;;5101390;28;21422;-68
2023/07/03 04:00:36;;;;;;;13.20;2.45;;;;;;;;;;5100374;28;20130;-68
2023/07/03 04:03:02;;;;;;;13.25;2.92;;;;;;;;;;5101429;27;20499;-68
2023/07/03 04:05:28;;;;;;;18.30;3.35;;;;;;;;;;5102365;28;20093;-68
2023/07/03 04:07:54;;;;;;;25.27;3.67;;;;;;;;;;5111659;27;20487;-69
2023/07/03 04:10:21;;;;;;;13.63;2.45;;;;;;;;;;5098842;28;20040;-68
2023/07/03 04:12:47;;;;;;;11.02;2.10;;;;;;;;;;5101909;28;20044;-68
2023/07/03 04:15:13;;;;;;;15.20;4.25;;;;;;;;;;5101843;28;20348;-68
2023/07/03 04:17:39;;;;;;;9.52;1.95;;;;;;;;;;5108863;28;20122;-68
2023/07/03 04:20:17;;;;;;;12.20;2.30;;;;;;;;;;5112045;27;20051;-68
2023/07/03 04:22:44;;;;;;;10.30;2.28;;;;;;;;;;5102086;28;20100;-68
2023/07/03 04:25:11;;;;;;;13.20;2.20;;;;;;;;;;5099570;28;20056;-68
2023/07/03 04:27:37;;;;;;;13.43;2.72;;;;;;;;;;5104124;28;20043;-68
2023/07/03 04:30:04;;;;;;;10.45;2.35;;;;;;;;;;5101148;28;20179;-68
2023/07/03 04:32:30;;;;;;;17.38;2.25;;;;;;;;;;5102069;28;21287;-68
2023/07/03 04:34:57;;;;;;;13.40;2.28;;;;;;;;;;5098895;28;20078;-68
2023/07/03 04:37:26;;;;;;;10.13;2.13;;;;;;;;;;5103885;28;20441;-69
2023/07/03 04:39:53;;;;;;;18.92;3.13;;;;;;;;;;5101930;28;20425;-69
2023/07/03 04:42:20;;;;;;;13.65;2.38;;;;;;;;;;5099791;28;20057;-68
2023/07/03 04:44:48;;;;;;;9.88;2.17;;;;;;;;;;5101364;28;20067;-68
2023/07/03 04:47:18;;;;;;;12.07;2.42;;;;;;;;;;5132518;27;20065;-68
2023/07/03 04:49:45;;;;;;;16.23;3.08;;;;;;;;;;5106678;28;20511;-68
2023/07/03 04:52:16;;;;;;;12.85;2.45;;;;;;;;;;5102044;28;20101;-68
2023/07/03 04:54:42;;;;;;;11.10;2.60;;;;;;;;;;5117336;27;20134;-68
2023/07/03 04:57:08;;;;;;;11.43;2.00;;;;;;;;;;5100317;28;20051;-68
2023/07/03 04:59:36;;;;;;;9.93;2.28;;;;;;;;;;5111165;28;20486;-68
2023/07/03 05:02:02;;;;;;;10.90;1.85;;;;;;;;;;5108670;28;20059;-68
2023/07/03 05:04:28;;;;;;;11.63;2.13;;;;;;;;;;5100642;28;20040;-69
2023/07/03 05:06:54;;;;;;;12.98;2.38;;;;;;;;;;5124667;27;20530;-68
2023/07/03 05:09:21;;;;;;;11.13;2.53;;;;;;;;;;5114244;28;20050;-68
2023/07/03 05:11:50;;;;;;;11.82;2.22;;;;;;;;;;5101830;28;20131;-69
2023/07/03 05:14:16;;;;;;;10.63;1.88;;;;;;;;;;5101100;28;20040;-69
2023/07/03 05:16:42;;;;;;;10.77;2.03;;;;;;;;;;5103694;28;20043;-67
2023/07/03 05:19:09;;;;;;;12.52;2.28;;;;;;;;;;5100368;28;20082;-68
2023/07/03 05:21:35;;;;;;;11.70;2.00;;;;;;;;;;5101153;28;20094;-64
2023/07/03 05:24:02;;;;;;;17.38;3.67;;;;;;;;;;5106039;28;20583;-67
2023/07/03 05:26:29;;;;;;;10.57;1.80;;;;;;;;;;5111520;27;20108;-67
2023/07/03 05:28:55;;;;;;;9.45;1.55;;;;;;;;;;5109309;27;20055;-66
2023/07/03 05:31:23;;;;;;;18.58;2.85;;;;;;;;;;5105837;28;20074;-66
2023/07/03 05:33:49;;;;;;;18.23;2.40;;;;;;;;;;5114174;28;20043;-67
2023/07/03 05:36:16;;;;;;;8.40;1.58;;;;;;;;;;5114032;28;20054;-67
2023/07/03 05:38:43;;;;;;;10.55;2.00;;;;;;;;;;5114592;28;20086;-67
2023/07/03 05:41:10;;;;;;;12.32;1.92;;;;;;;;;;5113721;27;20380;-67
2023/07/03 05:43:36;;;;;;;8.38;1.98;;;;;;;;;;5114808;27;20306;-67
2023/07/03 05:46:02;;;;;;;11.93;1.80;;;;;;;;;;5112155;28;20411;-66
2023/07/03 05:48:29;;;;;;;16.02;2.75;;;;;;;;;;5113809;28;20047;-66
2023/07/03 05:50:55;;;;;;;13.75;2.20;;;;;;;;;;5114984;28;20040;-67
2023/07/03 05:53:21;;;;;;;9.80;1.80;;;;;;;;;;5112302;27;20035;-74
2023/07/03 05:55:57;;;;;;;7.93;2.13;;;;;;;;;;5110106;27;20051;-68
2023/07/03 05:58:24;;;;;;;10.05;1.77;;;;;;;;;;5111194;28;20035;-66
2023/07/03 06:00:50;;;;;;;12.15;2.47;;;;;;;;;;5111931;27;20039;-66
2023/07/03 06:03:16;;;;;;;7.80;1.40;;;;;;;;;;5112599;27;20043;-66
2023/07/03 06:05:43;;;;;;;9.98;1.73;;;;;;;;;;5114659;28;20036;-66
2023/07/03 06:08:09;;;;;;;12.57;1.80;;;;;;;;;;5109742;27;20040;-66
2023/07/03 06:10:35;;;;;;;10.13;1.95;;;;;;;;;;5114039;28;20040;-66
2023/07/03 06:13:04;;;;;;;7.97;1.75;;;;;;;;;;5114581;28;20035;-66
2023/07/03 06:15:34;;;;;;;12.40;1.85;;;;;;;;;;5111454;28;20550;-67
2023/07/03 06:18:02;;;;;;;7.53;1.55;;;;;;;;;;5112581;28;20077;-69
2023/07/03 06:20:29;;;;;;;7.88;1.77;;;;;;;;;;5111896;28;20052;-67
2023/07/03 06:22:55;;;;;;;11.43;2.17;;;;;;;;;;5114708;28;20039;-68
2023/07/03 06:25:21;;;;;;;16.40;2.35;;;;;;;;;;5114952;27;20043;-67
2023/07/03 06:27:48;;;;;;;24.42;2.15;;;;;;;;;;5112124;27;20123;-67
2023/07/03 06:30:14;;;;;;;11.68;2.00;;;;;;;;;;5109856;27;20086;-67
2023/07/03 06:32:41;;;;;;;14.80;2.45;;;;;;;;;;5113589;28;20048;-67
2023/07/03 06:35:07;;;;;;;10.32;2.22;;;;;;;;;;5111690;28;20044;-67
2023/07/03 06:37:34;;;;;;;11.55;2.53;;;;;;;;;;5097118;27;20428;-67
2023/07/03 06:40:00;;;;;;;12.55;2.60;;;;;;;;;;5112260;27;20466;-67
2023/07/03 06:42:26;;;;;;;11.45;3.33;;;;;;;;;;5111236;28;20040;-67
2023/07/03 06:44:53;;;;;;;9.35;1.75;;;;;;;;;;5113555;27;20047;-67
2023/07/03 06:47:19;;;;;;;11.35;2.33;;;;;;;;;;5113521;28;20039;-67
2023/07/03 06:49:46;;;;;;;10.02;1.88;;;;;;;;;;5113356;28;20040;-67
2023/07/03 06:52:12;;;;;;;9.30;2.67;;;;;;;;;;5126589;27;20045;-67
2023/07/03 06:54:38;;;;;;;9.85;2.17;;;;;;;;;;5112822;28;20035;-67
2023/07/03 06:57:04;;;;;;;11.85;2.50;;;;;;;;;;5111969;28;20447;-67
2023/07/03 06:59:30;;;;;;;13.73;2.72;;;;;;;;;;5113751;28;20046;-67
2023/07/03 07:01:57;;;;;;;8.77;2.22;;;;;;;;;;5111826;28;20130;-67
2023/07/03 07:04:27;;;;;;;9.35;2.35;;;;;;;;;;5110638;28;20116;-67
2023/07/03 07:06:53;;;;;;;10.57;1.88;;;;;;;;;;5106845;27;20086;-67
2023/07/03 07:09:20;;;;;;;12.23;2.15;;;;;;;;;;5105664;28;20073;-67
2023/07/03 07:11:49;;;;;;;15.40;2.40;;;;;;;;;;5093660;27;20101;-67
2023/07/03 07:14:17;;;;;;;12.27;2.25;;;;;;;;;;5105963;27;20122;-67
2023/07/03 07:16:43;;;;;;;11.48;2.20;;;;;;;;;;5103815;28;20130;-67
2023/07/03 07:19:10;;;;;;;11.23;2.63;;;;;;;;;;5108435;27;20042;-67
2023/07/03 07:21:43;;;;;;;11.32;2.38;;;;;;;;;;5106549;28;20063;-67
2023/07/03 07:24:20;;;;;;;14.63;2.25;;;;;;;;;;5104917;28;20112;-67
2023/07/03 07:26:50;;;;;;;10.32;2.42;;;;;;;;;;5105725;27;20048;-67
2023/07/03 07:29:16;;;;;;;10.15;1.98;;;;;;;;;;5106849;28;20051;-68
2023/07/03 07:31:43;;;;;;;10.38;1.90;;;;;;;;;;5106776;27;20483;-67
2023/07/03 07:34:10;;;;;;;11.02;1.73;;;;;;;;;;5107606;27;20477;-67
2023/07/03 07:36:38;;;;;;;7.68;1.73;;;;;;;;;;5107322;28;20047;-67
2023/07/03 07:39:05;;;;;;;11.00;1.90;;;;;;;;;;5108861;28;20043;-66
2023/07/03 07:41:31;;;;;;;11.98;1.90;;;;;;;;;;5106030;28;20047;-66
2023/07/03 07:43:58;;;;;;;6.63;1.60;;;;;;;;;;5107347;28;20054;-66
2023/07/03 07:46:28;;;;;;;16.65;2.30;;;;;;;;;;5107249;28;20063;-66
2023/07/03 07:48:55;;;;;;;12.93;1.77;;;;;;;;;;5109291;28;20055;-66
2023/07/03 07:51:21;;;;;;;13.27;2.30;;;;;;;;;;5101142;28;20060;-67
2023/07/03 07:53:47;;;;;;;11.55;2.15;;;;;;;;;;5137833;27;20073;-66
2023/07/03 07:56:14;;;;;;;6.43;1.77;;;;;;;;;;5109015;28;20119;-66
2023/07/03 07:58:41;;;;;;;8.88;1.40;;;;;;;;;;5111396;28;20048;-66
2023/07/03 08:01:07;;;;;;;9.80;1.70;;;;;;;;;;5111636;28;20081;-66
2023/07/03 08:03:33;;;;;;;6.50;1.35;;;;;;;;;;5103659;28;20115;-66
2023/07/03 08:06:04;;;;;;;10.43;1.83;;;;;;;;;;5108302;28;20047;-67
2023/07/03 08:08:31;;;;;;;9.70;1.35;;;;;;;;;;5102978;28;20040;-67
2023/07/03 08:10:58;;;;;;;7.05;1.60;;;;;;;;;;5110059;28;20051;-67
2023/07/03 08:13:24;;;;;;;8.13;1.73;;;;;;;;;;5111768;28;20040;-67
2023/07/03 08:15:51;;;;;;;11.60;1.85;;;;;;;;;;5111297;28;20043;-66
2023/07/03 08:18:18;;;;;;;10.07;1.65;;;;;;;;;;5108816;27;20047;-66
2023/07/03 08:20:44;;;;;;;8.10;1.63;;;;;;;;;;5112184;27;20399;-65
2023/07/03 08:23:10;;;;;;;13.55;2.00;;;;;;;;;;5112404;28;20123;-67
2023/07/03 08:25:36;;;;;;;6.13;1.13;;;;;;;;;;5111754;28;20432;-67
2023/07/03 08:28:03;;;;;;;13.23;1.65;;;;;;;;;;5110382;28;20039;-66
2023/07/03 08:30:30;;;;;;;7.30;1.83;;;;;;;;;;5105779;28;20048;-67
2023/07/03 08:32:56;;;;;;;8.13;1.73;;;;;;;;;;5108544;27;20035;-66
2023/07/03 08:35:22;;;;;;;9.82;1.88;;;;;;;;;;5106622;28;20048;-66
2023/07/03 08:37:49;;;;;;;6.63;1.55;;;;;;;;;;5110631;28;20089;-66
2023/07/03 08:40:19;;;;;;;8.32;1.63;;;;;;;;;;5110702;28;20105;-67
2023/07/03 08:42:48;;;;;;;10.13;1.70;;;;;;;;;;5109304;28;20060;-67
2023/07/03 08:45:17;;;;;;;10.20;2.53;;;;;;;;;;5110624;28;20078;-67
2023/07/03 08:47:43;;;;;;;10.18;1.45;;;;;;;;;;5110931;28;20443;-67
2023/07/03 08:50:11;;;;;;;12.32;2.25;;;;;;;;;;5100891;28;20044;-65
2023/07/03 08:52:40;;;;;;;15.63;2.30;;;;;;;;;;5137115;27;20079;-65
2023/07/03 08:55:07;;;;;;;35.75;2.97;;;;;;;;;;5108249;28;20114;-65
2023/07/03 08:57:36;;;;;;;7.88;2.40;;;;;;;;;;5111286;28;20083;-66
2023/07/03 09:00:05;;;;;;;5.53;1.42;;;;;;;;;;5114835;28;20055;-64
2023/07/03 09:02:41;;;;;;;8.48;1.70;;;;;;;;;;5114969;28;20133;-65
2023/07/03 09:05:13;;;;;;;11.52;2.95;;;;;;;;;;5116132;28;20048;-65
2023/07/03 09:07:54;;;;;;;27.00;2.30;;;;;;;;;;5114006;28;20050;-66
2023/07/03 09:10:21;;;;;;;13.73;1.90;;;;;;;;;;5115316;28;20079;-65
2023/07/03 09:12:53;;;;;;;12.15;1.65;;;;;;;;;;5113074;28;20106;-65
2023/07/03 09:15:49;;;;;;;7.82;1.70;;;;;;;;;;5111628;28;20410;-66
2023/07/03 09:18:17;;;;;;;9.52;1.65;;;;;;;;;;5097029;27;20410;-66
2023/07/03 09:20:44;;;;;;;8.93;1.35;;;;;;;;;;5113630;28;20445;-66
2023/07/03 09:23:16;;;;;;;6.20;1.75;;;;;;;;;;5113064;27;20531;-66
2023/07/03 09:25:46;;;;;;;8.00;1.63;;;;;;;;;;5114868;28;20043;-66
2023/07/03 09:28:12;;;;;;;10.07;2.55;;;;;;;;;;5115212;27;20529;-66
2023/07/03 09:30:39;;;;;;;7.13;1.45;;;;;;;;;;5113157;28;20096;-66
2023/07/03 09:33:09;;;;;;;11.88;1.52;;;;;;;;;;5113293;28;20059;-66
2023/07/03 09:35:41;;;;;;;8.10;1.50;;;;;;;;;;5112230;27;20035;-66
2023/07/03 09:38:25;;;;;;;18.77;1.75;;;;;;;;;;5113847;28;20180;-65
2023/07/03 09:40:53;;;;;;;9.95;1.52;;;;;;;;;;5112208;28;20043;-66
2023/07/03 09:43:26;;;;;;;11.40;1.50;;;;;;;;;;5113022;28;20054;-66
2023/07/03 09:45:52;;;;;;;;;;;;;;;;;;5112454;27;20469;-66
2023/07/03 09:48:18;;;;;;;7.35;1.42;;;;;;;;;;5113143;27;20032;-66
2023/07/03 09:50:45;;;;;;;8.52;1.25;;;;;;;;;;5110949;28;20047;-66
2023/07/03 09:53:15;;;;;;;8.70;1.48;;;;;;;;;;5112925;28;20118;-66
2023/07/03 09:55:41;;;;;;;11.18;1.35;;;;;;;;;;5110063;28;20044;-66
2023/07/03 09:58:12;;;;;;;5.25;1.73;;;;;;;;;;5115193;28;20055;-66
2023/07/03 10:00:43;;;;;;;8.38;1.33;;;;;;;;;;5112210;28;20480;-66
2023/07/03 10:03:09;;;;;;;11.85;1.42;;;;;;;;;;5113063;27;20039;-66
2023/07/03 10:05:36;;;;;;;13.40;1.70;;;;;;;;;;5112241;28;20086;-66
2023/07/03 10:08:03;;;;;;;10.82;2.72;;;;;;;;;;5114653;28;20036;-66
2023/07/03 10:10:33;;;;;;;16.88;1.50;;;;;;;;;;5114394;28;20111;-66
2023/07/03 10:13:05;;;;;;;10.27;1.70;;;;;;;;;;5111933;28;20067;-65
2023/07/03 10:15:33;;;;;;;10.65;1.42;;;;;;;;;;5114365;28;20090;-65
2023/07/03 10:18:01;;;;;;;8.25;1.65;;;;;;;;;;5114740;27;20065;-65
2023/07/03 10:20:32;;;;;;;9.15;1.63;;;;;;;;;;5114115;27;20042;-65
2023/07/03 10:23:02;;;;;;;11.55;1.75;;;;;;;;;;5112971;27;20031;-65
2023/07/03 10:25:31;;;;;;;12.30;2.33;;;;;;;;;;5107908;28;20046;-65
2023/07/03 10:27:58;;;;;;;9.05;1.60;;;;;;;;;;5109681;27;20063;-65
2023/07/03 10:30:26;;;;;;;8.02;1.77;;;;;;;;;;5113636;28;20123;-65
2023/07/03 10:32:54;;;;;;;6.03;2.00;;;;;;;;;;5113676;27;20059;-66
2023/07/03 10:35:23;;;;;;;8.68;1.60;;;;;;;;;;5112661;27;20135;-65
2023/07/03 10:38:05;;;;;;;12.77;2.58;;;;;;;;;;5104689;28;20048;-65
2023/07/03 10:40:51;;;;;;;11.60;1.60;;;;;;;;;;5110045;28;20096;-65
2023/07/03 10:43:18;;;;;;;5.85;1.45;;;;;;;;;;5113643;28;20360;-65
2023/07/03 10:45:45;;;;;;;5.30;1.17;;;;;;;;;;5112251;28;20522;-65
2023/07/03 10:48:14;;;;;;;5.55;1.25;;;;;;;;;;5107881;27;20048;-65
2023/07/03 10:50:44;;;;;;;9.07;1.40;;;;;;;;;;5112313;28;20520;-65
2023/07/03 10:53:16;;;;;;;6.53;1.02;;;;;;;;;;5111426;28;20039;-66
2023/07/03 10:55:44;;;;;;;6.57;1.25;;;;;;;;;;5103000;28;20079;-66
2023/07/03 10:58:22;;;;;;;6.32;1.20;;;;;;;;;;5110176;28;20055;-66
2023/07/03 11:01:08;;;;;;;4.97;0.82;;;;;;;;;;5106662;27;20097;-66
2023/07/03 11:03:50;;;;;;;4.10;0.82;;;;;;;;;;5118630;27;20397;-66
2023/07/03 11:06:37;;;;;;;9.18;1.30;;;;;;;;;;5107717;28;20426;-66
2023/07/03 11:09:13;;;;;;;6.22;1.40;;;;;;;;;;5105600;28;20037;-66
2023/07/03 11:12:09;;;;;;;4.65;0.80;;;;;;;;;;5091142;28;20513;-66
2023/07/03 11:14:44;;;;;;;4.90;1.08;;;;;;;;;;5088506;28;20412;-66
2023/07/03 11:17:18;;;;;;;8.10;1.52;;;;;;;;;;5106500;28;20564;-66
2023/07/03 11:19:56;;;;;;;5.22;1.13;;;;;;;;;;5103364;28;20376;-65
2023/07/03 11:22:32;;;;;;;9.07;1.15;;;;;;;;;;5114486;27;20422;-65
2023/07/03 11:25:01;;;;;;;9.85;1.42;;;;;;;;;;5106064;27;20080;-66
2023/07/03 11:27:27;;;;;;;8.77;1.67;;;;;;;;;;5112810;27;20448;-66
2023/07/03 11:29:54;;;;;;;12.57;1.92;;;;;;;;;;5108832;27;20065;-65
2023/07/03 11:32:22;;;;;;;5.47;1.10;;;;;;;;;;5115808;27;20126;-66
2023/07/03 11:34:48;;;;;;;6.38;1.60;;;;;;;;;;5106675;28;20089;-65
2023/07/03 11:37:33;;;;;;;5.88;1.15;;;;;;;;;;5109187;27;20073;-65
2023/07/03 11:40:19;;;;;;;7.07;1.75;;;;;;;;;;5110474;27;20056;-66
2023/07/03 11:42:46;;;;;;;11.90;1.65;;;;;;;;;;5104012;27;20044;-66
2023/07/03 11:45:24;;;;;;;7.95;1.73;;;;;;;;;;5098079;28;20748;-66
2023/07/03 11:47:52;;;;;;;6.13;1.80;;;;;;;;;;5099548;28;20079;-64
2023/07/03 11:50:26;;;;;;;3.58;1.10;;;;;;;;;;5108600;27;20164;-64
2023/07/03 11:52:57;;;;;;;5.32;1.40;;;;;;;;;;5105862;27;20079;-66
2023/07/03 11:55:34;;;;;;;7.60;1.42;;;;;;;;;;5101051;27;20045;-66
2023/07/03 11:58:01;;;;;;;9.15;1.77;;;;;;;;;;5106228;27;20051;-65
2023/07/03 12:00:29;;;;;;;7.65;1.48;;;;;;;;;;5103076;28;20051;-65
2023/07/03 12:02:59;;;;;;;6.97;1.33;;;;;;;;;;5107184;27;20047;-65
2023/07/03 12:05:44;;;;;;;7.63;1.33;;;;;;;;;;5106084;28;20039;-66
2023/07/03 12:08:19;;;;;;;8.45;1.70;;;;;;;;;;5107699;28;20047;-65
2023/07/03 12:10:54;;;;;;;8.07;1.45;;;;;;;;;;5107412;28;20069;-66
2023/07/03 12:13:45;;;;;;;10.95;2.00;;;;;;;;;;5103555;28;20092;-66
2023/07/03 12:16:28;;;;;;;11.15;1.90;;;;;;;;;;5105332;28;20051;-65
2023/07/03 12:18:58;;;;;;;9.63;2.25;;;;;;;;;;5141192;27;20036;-69
2023/07/03 12:21:25;;;;;;;6.97;1.35;;;;;;;;;;5100986;28;20116;-73
2023/07/03 12:23:52;;;;;;;6.85;1.42;;;;;;;;;;5100112;28;20047;-73
2023/07/03 12:26:18;;;;;;;7.70;1.70;;;;;;;;;;5109748;28;20039;-65
2023/07/03 12:28:45;;;;;;;5.50;1.48;;;;;;;;;;5112332;28;20072;-66
2023/07/03 12:31:19;;;;;;;6.38;1.40;;;;;;;;;;5111757;28;20044;-65
2023/07/03 12:33:49;;;;;;;8.02;2.05;;;;;;;;;;5109379;28;20040;-65
2023/07/03 12:36:25;;;;;;;5.25;1.38;;;;;;;;;;5112269;28;20039;-65
2023/07/03 12:38:51;;;;;;;7.22;1.73;;;;;;;;;;5112133;28;20039;-66
2023/07/03 12:41:31;;;;;;;10.18;1.50;;;;;;;;;;5111377;28;20047;-66
2023/07/03 12:44:00;;;;;;;10.18;1.40;;;;;;;;;;5111861;28;20075;-66
2023/07/03 12:46:31;;;;;;;8.68;1.85;;;;;;;;;;5110738;28;20044;-65
2023/07/03 12:49:07;;;;;;;11.85;2.55;;;;;;;;;;5110920;28;20065;-66
2023/07/03 12:51:38;;;;;;;8.90;1.60;;;;;;;;;;5113676;28;20044;-66
2023/07/03 12:54:05;;;;;;;9.20;1.50;;;;;;;;;;5108844;28;20087;-66
2023/07/03 12:56:33;;;;;;;6.53;1.25;;;;;;;;;;5110891;28;20157;-66
2023/07/03 12:58:59;;;;;;;5.45;1.00;;;;;;;;;;5112052;28;20403;-66
2023/07/03 13:01:26;;;;;;;3.13;0.90;;;;;;;;;;5109706;28;20113;-66
2023/07/03 13:03:52;;;;;;;8.88;1.35;;;;;;;;;;5110008;28;20109;-66
2023/07/03 13:06:24;;;;;;;8.13;1.52;;;;;;;;;;5110487;28;20045;-66
2023/07/03 13:08:51;;;;;;;9.75;1.98;;;;;;;;;;5093061;28;20052;-66
2023/07/03 13:11:30;;;;;;;25.92;2.60;;;;;;;;;;5108824;28;20075;-66
2023/07/03 13:14:14;;;;;;;9.25;1.67;;;;;;;;;;5110243;28;20036;-66
2023/07/03 13:16:44;;;;;;;10.00;1.40;;;;;;;;;;5096387;28;20051;-65
2023/07/03 13:19:10;;;;;;;4.20;1.25;;;;;;;;;;5111225;28;20391;-66
2023/07/03 13:21:38;;;;;;;6.90;1.35;;;;;;;;;;5110594;28;20048;-66
2023/07/03 13:24:12;;;;;;;8.50;1.27;;;;;;;;;;5108075;28;20048;-65
2023/07/03 13:26:41;;;;;;;8.95;1.63;;;;;;;;;;5109521;28;20145;-65
2023/07/03 13:29:07;;;;;;;9.25;2.00;;;;;;;;;;5111648;28;20044;-65
2023/07/03 13:31:34;;;;;;;7.85;1.80;;;;;;;;;;5110803;28;20043;-65
2023/07/03 13:34:12;;;;;;;7.50;1.63;;;;;;;;;;5108136;28;20047;-66
2023/07/03 13:36:49;;;;;;;8.90;1.45;;;;;;;;;;5110011;28;20155;-66
2023/07/03 13:39:18;;;;;;;7.43;1.33;;;;;;;;;;5110587;28;20040;-66
2023/07/03 13:41:46;;;;;;;7.55;2.15;;;;;;;;;;5110301;28;20051;-66
2023/07/03 13:44:14;;;;;;;6.20;1.45;;;;;;;;;;5104195;28;20035;-66
2023/07/03 13:46:41;;;;;;;6.35;1.98;;;;;;;;;;5113943;28;20063;-66
2023/07/03 13:49:08;;;;;;;4.18;1.10;;;;;;;;;;5115241;27;20036;-66
2023/07/03 13:51:35;;;;;;;4.70;1.33;;;;;;;;;;5112047;27;20050;-66
2023/07/03 13:54:01;;;;;;;6.53;1.02;;;;;;;;;;5112204;27;20142;-65
2023/07/03 13:56:28;;;;;;;5.50;1.30;;;;;;;;;;5115200;28;20592;-66
2023/07/03 13:58:55;;;;;;;7.65;1.60;;;;;;;;;;5114355;28;20391;-66
2023/07/03 14:01:21;;;;;;;6.43;1.75;;;;;;;;;;5113332;28;20088;-66
2023/07/03 14:03:48;;;;;;;6.38;1.27;;;;;;;;;;5112666;28;20427;-66
2023/07/03 14:06:16;;;;;;;4.50;1.00;;;;;;;;;;5111094;27;20044;-66
2023/07/03 14:08:42;;;;;;;9.23;1.55;;;;;;;;;;5114009;28;20486;-66
2023/07/03 14:11:12;;;;;;;6.22;1.27;;;;;;;;;;5113547;28;20557;-66
2023/07/03 14:13:39;;;;;;;6.70;1.40;;;;;;;;;;5112279;27;20044;-65
2023/07/03 14:16:05;;;;;;;5.93;1.02;;;;;;;;;;5114256;27;20066;-66
2023/07/03 14:18:32;;;;;;;5.93;1.20;;;;;;;;;;5112984;28;20338;-66
2023/07/03 14:20:58;;;;;;;4.82;1.13;;;;;;;;;;5113964;28;20044;-66
2023/07/03 14:23:24;;;;;;;7.25;1.67;;;;;;;;;;5109517;27;20044;-66
2023/07/03 14:25:50;;;;;;;11.43;1.70;;;;;;;;;;5112722;28;20088;-66
2023/07/03 14:28:17;;;;;;;3.72;1.15;;;;;;;;;;5114196;27;20039;-65
2023/07/03 14:30:43;;;;;;;8.35;1.30;;;;;;;;;;5144447;27;20047;-66
2023/07/03 14:33:09;;;;;;;7.55;1.17;;;;;;;;;;5110327;27;20071;-66
2023/07/03 14:35:36;;;;;;;6.45;1.52;;;;;;;;;;5110776;27;20054;-66
2023/07/03 14:38:02;;;;;;;6.57;1.48;;;;;;;;;;5118818;27;20046;-66
2023/07/03 14:40:28;;;;;;;6.65;1.42;;;;;;;;;;5112088;28;20039;-65
2023/07/03 14:42:55;;;;;;;7.25;1.55;;;;;;;;;;5118681;27;20051;-66
2023/07/03 14:45:21;;;;;;;8.20;1.70;;;;;;;;;;5110399;27;20047;-66